Ava Foss — WDF5779 — position and weather

sailwx.info

Track history (hours):
 
Tides and Currents Weather Stations Pressure Air Temp Water Temp Dewpoint Dewpoint Depression Visibility Wind Speed Wind Dir Waves Ship Positions

Ava Foss

Owner: Foss Maritime Company, Seattle, WA. More information available from US FCC via Universal Licensing System and Coast Guard Vessel Documentation Center.

Last reported at 2014-Nov-22 19:33 UTC. Time now 2014-Nov-23 09:55 UTC.
Position N 33°51' W 118°24'.

Length 10 m; draft 2.5 m.

Type: Passenger vessel. MMSI: 367467120.

Date/timePositionNaut miles runAvg speedWind from/ knotsBaromVisibWave heightAir tempDewpointWater temp
2014-Nov-22 19:33N 33°51' W 118°24'0 0.0
2014-Nov-22 18:30N 33°51' W 118°24'0 0.0
2014-Nov-22 17:30N 33°51' W 118°24'0 0.0
2014-Nov-22 06:30N 33°51' W 118°24'0 0.1
2014-Nov-22 04:07N 33°51' W 118°24'0 0.0
2014-Nov-21 19:32N 33°51' W 118°24'0 0.0
2014-Nov-21 18:33N 33°51' W 118°24'0 0.0
2014-Nov-21 17:33N 33°51' W 118°24'0 0.0
2014-Nov-21 14:33N 33°51' W 118°24'0 0.0
2014-Nov-21 13:23N 33°51' W 118°24'0 0.0
2014-Nov-21 12:32N 33°51' W 118°24'0 0.0
2014-Nov-21 11:26N 33°51' W 118°24'0 0.0
2014-Nov-21 10:32N 33°51' W 118°24'0 0.0
2014-Nov-21 09:32N 33°51' W 118°24'0 0.0
2014-Nov-21 08:23N 33°51' W 118°24'2 0.3
2014-Nov-21 01:30N 33°52' W 118°26'2 0.8
2014-Nov-20 22:32N 33°51' W 118°24'4 3.7
2014-Nov-20 21:33N 33°53' W 118°26'4 2.9
2014-Nov-20 20:20N 33°51' W 118°24'0 0.0
2014-Nov-20 19:26N 33°51' W 118°24'5 5.5
2014-Nov-20 18:33N 33°54' W 118°27'5 4.8
2014-Nov-20 17:34N 33°51' W 118°24'0 0.0
2014-Nov-20 15:31N 33°51' W 118°24'0 0.0
2014-Nov-20 13:07N 33°51' W 118°24'0 0.0
2014-Nov-20 12:31N 33°51' W 118°24'0 0.0
2014-Nov-20 11:31N 33°51' W 118°24'1 0.2
2014-Nov-20 07:34N 33°51' W 118°25'4 4.0
2014-Nov-20 06:30N 33°55' W 118°27'2 1.7
2014-Nov-20 05:33N 33°53' W 118°26'3 0.9
2014-Nov-20 01:33N 33°51' W 118°24'0 0.0
2014-Nov-20 00:33N 33°51' W 118°24'5 5.1
2014-Nov-19 23:32N 33°55' W 118°27'0 0.1
2014-Nov-19 22:33N 33°55' W 118°27'5 4.9
2014-Nov-19 21:33N 33°51' W 118°24'5 5.0
2014-Nov-19 20:33N 33°50' W 118°30'5 4.2
2014-Nov-19 19:19N 33°54' W 118°27'5 6.4
2014-Nov-19 18:33N 33°51' W 118°24'0 0.0
2014-Nov-19 17:31N 33°51' W 118°24'0 0.1
2014-Nov-19 10:27N 33°50' W 118°24'0 0.1
2014-Nov-19 04:29N 33°51' W 118°24'6 6.5
2014-Nov-19 03:33N 33°54' W 118°29'6 6.0
2014-Nov-19 02:33N 33°51' W 118°24'0 0.0
2014-Nov-19 00:31N 33°51' W 118°24'  
2014-Nov-16 18:27N 33°51' W 118°24'0 0.0
2014-Nov-16 17:28N 33°51' W 118°24'5 4.8
2014-Nov-16 16:28N 33°54' W 118°27'1 0.8
2014-Nov-16 15:12N 33°54' W 118°26'4 0.3
2014-Nov-16 02:04N 33°51' W 118°24'0 0.0
2014-Nov-16 01:31N 33°51' W 118°24'0 0.0
2014-Nov-16 00:22N 33°51' W 118°24'2 2.7
2014-Nov-15 23:33N 33°52' W 118°25'2 2.2
2014-Nov-15 22:33N 33°51' W 118°24'0 0.0
2014-Nov-15 21:29N 33°51' W 118°24'0 0.0
2014-Nov-15 20:33N 33°51' W 118°24'0 0.0
2014-Nov-15 19:33N 33°51' W 118°24'0 0.0
2014-Nov-15 18:32N 33°51' W 118°24'0 0.0
2014-Nov-15 17:33N 33°51' W 118°24'0 0.0
2014-Nov-15 05:31N 33°51' W 118°24'0 0.0
2014-Nov-15 02:09N 33°51' W 118°24'5 8.0
2014-Nov-15 01:33N 33°54' W 118°27'5 4.7
2014-Nov-15 00:31N 33°51' W 118°24'0 0.0
2014-Nov-14 23:33N 33°51' W 118°24'0 0.0
2014-Nov-14 22:32N 33°51' W 118°24'0 0.0
2014-Nov-14 21:31N 33°51' W 118°24'3 3.0
2014-Nov-14 20:33N 33°53' W 118°26'2 2.4
2014-Nov-14 19:33N 33°55' W 118°27'0 0.4
2014-Nov-14 18:33N 33°55' W 118°27'5 4.9
2014-Nov-14 17:33N 33°51' W 118°24'0 0.4
2014-Nov-14 16:33N 33°50' W 118°24'5 4.3
2014-Nov-14 15:24N 33°55' W 118°27'5 5.5
2014-Nov-14 14:30N 33°51' W 118°24'0 0.0
2014-Nov-14 12:30N 33°51' W 118°24'0 0.1
2014-Nov-14 11:33N 33°51' W 118°24'0 0.1
2014-Nov-14 10:33N 33°51' W 118°24'0 0.0
2014-Nov-14 09:24N 33°51' W 118°24'1 0.3
2014-Nov-14 06:32N 33°51' W 118°24'1 0.2
2014-Nov-14 03:17N 33°51' W 118°24'5 7.0
2014-Nov-14 02:33N 33°55' W 118°27'5 5.1
2014-Nov-14 01:32N 33°51' W 118°24'6 5.0
2014-Nov-14 00:25N 33°53' W 118°29'6 4.3
2014-Nov-13 23:07N 33°51' W 118°24'5 5.9
2014-Nov-13 22:17N 33°52' W 118°29'5 6.3
2014-Nov-13 21:32N 33°51' W 118°24'5 0.8
2014-Nov-13 15:27N 33°54' W 118°27'5 5.1
2014-Nov-13 14:30N 33°51' W 118°24'0 0.0
2014-Nov-13 13:33N 33°51' W 118°24'0 0.0
2014-Nov-13 12:27N 33°51' W 118°24'0 0.0
2014-Nov-13 11:30N 33°51' W 118°24'0 0.0
2014-Nov-13 10:33N 33°51' W 118°24'0 0.0
2014-Nov-13 09:24N 33°51' W 118°24'0 0.0
2014-Nov-13 08:18N 33°51' W 118°24'0 0.0
2014-Nov-13 07:24N 33°51' W 118°24'0 0.0
2014-Nov-13 06:30N 33°51' W 118°24'0 0.0
2014-Nov-13 00:33N 33°51' W 118°24'0 0.0
2014-Nov-12 23:33N 33°51' W 118°24'0 0.0
2014-Nov-12 22:27N 33°51' W 118°24'0 0.0
2014-Nov-12 21:27N 33°51' W 118°24'0 0.0
2014-Nov-12 20:33N 33°51' W 118°24'  
Track history (hours):
 
Tides and Currents Weather Stations Pressure Air Temp Water Temp Dewpoint Dewpoint Depression Visibility Wind Speed Wind Dir Waves Ship Positions

Ava Foss

Owner: Foss Maritime Company, Seattle, WA. More information available from US FCC via Universal Licensing System and Coast Guard Vessel Documentation Center.

Last reported at 2014-Nov-22 19:33 UTC. Time now 2014-Nov-23 09:55 UTC.
Position N 33°51' W 118°24'.

Length 10 m; draft 2.5 m.

Type: Passenger vessel. MMSI: 367467120.

Date/timePositionNaut miles runAvg speedWind from/ knotsBaromVisibWave heightAir tempDewpointWater temp
2014-Nov-22 19:33N 33°51' W 118°24'0 0.0
2014-Nov-22 18:30N 33°51' W 118°24'0 0.0
2014-Nov-22 17:30N 33°51' W 118°24'0 0.0
2014-Nov-22 06:30N 33°51' W 118°24'0 0.1
2014-Nov-22 04:07N 33°51' W 118°24'0 0.0
2014-Nov-21 19:32N 33°51' W 118°24'0 0.0
2014-Nov-21 18:33N 33°51' W 118°24'0 0.0
2014-Nov-21 17:33N 33°51' W 118°24'0 0.0
2014-Nov-21 14:33N 33°51' W 118°24'0 0.0
2014-Nov-21 13:23N 33°51' W 118°24'0 0.0
2014-Nov-21 12:32N 33°51' W 118°24'0 0.0
2014-Nov-21 11:26N 33°51' W 118°24'0 0.0
2014-Nov-21 10:32N 33°51' W 118°24'0 0.0
2014-Nov-21 09:32N 33°51' W 118°24'0 0.0
2014-Nov-21 08:23N 33°51' W 118°24'2 0.3
2014-Nov-21 01:30N 33°52' W 118°26'2 0.8
2014-Nov-20 22:32N 33°51' W 118°24'4 3.7
2014-Nov-20 21:33N 33°53' W 118°26'4 2.9
2014-Nov-20 20:20N 33°51' W 118°24'0 0.0
2014-Nov-20 19:26N 33°51' W 118°24'5 5.5
2014-Nov-20 18:33N 33°54' W 118°27'5 4.8
2014-Nov-20 17:34N 33°51' W 118°24'0 0.0
2014-Nov-20 15:31N 33°51' W 118°24'0 0.0
2014-Nov-20 13:07N 33°51' W 118°24'0 0.0
2014-Nov-20 12:31N 33°51' W 118°24'0 0.0
2014-Nov-20 11:31N 33°51' W 118°24'1 0.2
2014-Nov-20 07:34N 33°51' W 118°25'4 4.0
2014-Nov-20 06:30N 33°55' W 118°27'2 1.7
2014-Nov-20 05:33N 33°53' W 118°26'3 0.9
2014-Nov-20 01:33N 33°51' W 118°24'0 0.0
2014-Nov-20 00:33N 33°51' W 118°24'5 5.1
2014-Nov-19 23:32N 33°55' W 118°27'0 0.1
2014-Nov-19 22:33N 33°55' W 118°27'5 4.9
2014-Nov-19 21:33N 33°51' W 118°24'5 5.0
2014-Nov-19 20:33N 33°50' W 118°30'5 4.2
2014-Nov-19 19:19N 33°54' W 118°27'5 6.4
2014-Nov-19 18:33N 33°51' W 118°24'0 0.0
2014-Nov-19 17:31N 33°51' W 118°24'0 0.1
2014-Nov-19 10:27N 33°50' W 118°24'0 0.1
2014-Nov-19 04:29N 33°51' W 118°24'6 6.5
2014-Nov-19 03:33N 33°54' W 118°29'6 6.0
2014-Nov-19 02:33N 33°51' W 118°24'0 0.0
2014-Nov-19 00:31N 33°51' W 118°24'  
2014-Nov-16 18:27N 33°51' W 118°24'0 0.0
2014-Nov-16 17:28N 33°51' W 118°24'5 4.8
2014-Nov-16 16:28N 33°54' W 118°27'1 0.8
2014-Nov-16 15:12N 33°54' W 118°26'4 0.3
2014-Nov-16 02:04N 33°51' W 118°24'0 0.0
2014-Nov-16 01:31N 33°51' W 118°24'0 0.0
2014-Nov-16 00:22N 33°51' W 118°24'2 2.7
2014-Nov-15 23:33N 33°52' W 118°25'2 2.2
2014-Nov-15 22:33N 33°51' W 118°24'0 0.0
2014-Nov-15 21:29N 33°51' W 118°24'0 0.0
2014-Nov-15 20:33N 33°51' W 118°24'0 0.0
2014-Nov-15 19:33N 33°51' W 118°24'0 0.0
2014-Nov-15 18:32N 33°51' W 118°24'0 0.0
2014-Nov-15 17:33N 33°51' W 118°24'0 0.0
2014-Nov-15 05:31N 33°51' W 118°24'0 0.0
2014-Nov-15 02:09N 33°51' W 118°24'5 8.0
2014-Nov-15 01:33N 33°54' W 118°27'5 4.7
2014-Nov-15 00:31N 33°51' W 118°24'0 0.0
2014-Nov-14 23:33N 33°51' W 118°24'0 0.0
2014-Nov-14 22:32N 33°51' W 118°24'0 0.0
2014-Nov-14 21:31N 33°51' W 118°24'3 3.0
2014-Nov-14 20:33N 33°53' W 118°26'2 2.4
2014-Nov-14 19:33N 33°55' W 118°27'0 0.4
2014-Nov-14 18:33N 33°55' W 118°27'5 4.9
2014-Nov-14 17:33N 33°51' W 118°24'0 0.4
2014-Nov-14 16:33N 33°50' W 118°24'5 4.3
2014-Nov-14 15:24N 33°55' W 118°27'5 5.5
2014-Nov-14 14:30N 33°51' W 118°24'0 0.0
2014-Nov-14 12:30N 33°51' W 118°24'0 0.1
2014-Nov-14 11:33N 33°51' W 118°24'0 0.1
2014-Nov-14 10:33N 33°51' W 118°24'0 0.0
2014-Nov-14 09:24N 33°51' W 118°24'1 0.3
2014-Nov-14 06:32N 33°51' W 118°24'1 0.2
2014-Nov-14 03:17N 33°51' W 118°24'5 7.0
2014-Nov-14 02:33N 33°55' W 118°27'5 5.1
2014-Nov-14 01:32N 33°51' W 118°24'6 5.0
2014-Nov-14 00:25N 33°53' W 118°29'6 4.3
2014-Nov-13 23:07N 33°51' W 118°24'5 5.9
2014-Nov-13 22:17N 33°52' W 118°29'5 6.3
2014-Nov-13 21:32N 33°51' W 118°24'5 0.8
2014-Nov-13 15:27N 33°54' W 118°27'5 5.1
2014-Nov-13 14:30N 33°51' W 118°24'0 0.0
2014-Nov-13 13:33N 33°51' W 118°24'0 0.0
2014-Nov-13 12:27N 33°51' W 118°24'0 0.0
2014-Nov-13 11:30N 33°51' W 118°24'0 0.0
2014-Nov-13 10:33N 33°51' W 118°24'0 0.0
2014-Nov-13 09:24N 33°51' W 118°24'0 0.0
2014-Nov-13 08:18N 33°51' W 118°24'0 0.0
2014-Nov-13 07:24N 33°51' W 118°24'0 0.0
2014-Nov-13 06:30N 33°51' W 118°24'0 0.0
2014-Nov-13 00:33N 33°51' W 118°24'0 0.0
2014-Nov-12 23:33N 33°51' W 118°24'0 0.0
2014-Nov-12 22:27N 33°51' W 118°24'0 0.0
2014-Nov-12 21:27N 33°51' W 118°24'0 0.0
2014-Nov-12 20:33N 33°51' W 118°24'  

Dump ship's entire track history